createdAt,value
2022-12-08T00:01:23.078Z,94759.06
2022-12-08T00:03:51.066Z,94768.50
2022-12-08T00:06:48.701Z,94765.75
2022-12-08T00:09:24.853Z,94763.97
2022-12-08T00:12:03.133Z,94761.16
2022-12-08T00:14:36.185Z,94747.56
2022-12-08T00:17:03.563Z,94765.03
2022-12-08T00:19:32.917Z,94756.09
2022-12-08T00:22:00.315Z,94748.72
2022-12-08T00:24:31.545Z,94750.72
2022-12-08T00:26:58.152Z,94751.06
2022-12-08T00:29:24.796Z,94739.72
2022-12-08T00:31:51.500Z,94747.94
2022-12-08T00:34:18.525Z,94737.38
2022-12-08T00:36:45.198Z,94740.75
2022-12-08T00:39:13.610Z,94744.53
2022-12-08T00:41:59.189Z,94743.13
2022-12-08T00:44:25.902Z,94719.91
2022-12-08T00:46:52.573Z,94723.44
2022-12-08T00:49:19.585Z,94743.50
2022-12-08T00:51:46.142Z,94738.88
2022-12-08T00:54:13.120Z,94737.97
2022-12-08T00:56:39.829Z,94735.00
2022-12-08T00:59:07.567Z,94728.88
2022-12-08T01:01:34.776Z,94737.31
2022-12-08T01:04:10.444Z,94733.13
2022-12-08T01:06:37.904Z,94730.38
2022-12-08T01:09:06.148Z,94729.81
2022-12-08T01:11:33.684Z,94726.28
2022-12-08T01:14:00.463Z,94723.19
2022-12-08T01:16:30.539Z,94721.13
2022-12-08T01:18:59.525Z,94713.88
2022-12-08T01:21:26.465Z,94709.53
2022-12-08T01:23:53.056Z,94723.03
2022-12-08T01:26:20.246Z,94706.53
2022-12-08T01:28:47.291Z,94714.91
2022-12-08T01:31:16.937Z,94715.78
2022-12-08T01:33:44.230Z,94713.94
2022-12-08T01:36:38.251Z,94707.00
2022-12-08T01:39:08.357Z,94722.59
2022-12-08T01:41:37.533Z,94718.91
2022-12-08T01:44:08.229Z,94719.78
2022-12-08T01:46:37.088Z,94723.56
2022-12-08T01:49:27.797Z,94717.47
2022-12-08T01:52:14.827Z,94719.44
2022-12-08T01:54:56.019Z,94718.31
2022-12-08T01:57:39.890Z,94711.59
2022-12-08T02:00:10.151Z,94708.00
2022-12-08T02:02:46.748Z,94702.75
2022-12-08T02:05:14.205Z,94709.69
2022-12-08T02:07:41.153Z,94701.31
2022-12-08T02:10:08.260Z,94697.53
2022-12-08T02:12:34.926Z,94698.44
2022-12-08T02:15:04.963Z,94700.38
2022-12-08T02:17:44.694Z,94704.50
2022-12-08T02:20:26.916Z,94691.94
2022-12-08T02:23:00.884Z,94684.13
2022-12-08T02:25:46.132Z,94684.22
2022-12-08T02:28:31.335Z,94692.69
2022-12-08T02:31:36.202Z,94677.53
2022-12-08T02:34:21.093Z,94672.66
2022-12-08T02:37:22.961Z,94673.41
2022-12-08T02:40:21.641Z,94671.09
2022-12-08T02:42:55.802Z,94665.47
2022-12-08T02:45:30.989Z,94660.44
2022-12-08T02:47:59.317Z,94657.59
2022-12-08T02:50:27.040Z,94651.47
2022-12-08T02:52:53.932Z,94662.53
2022-12-08T02:55:23.233Z,94658.25
2022-12-08T02:58:29.916Z,94641.09
2022-12-08T03:01:24.605Z,94637.66
2022-12-08T03:04:14.653Z,94642.00
2022-12-08T03:07:05.857Z,94642.59
2022-12-08T03:09:42.171Z,94627.38
2022-12-08T03:12:33.589Z,94637.41
2022-12-08T03:15:07.235Z,94624.84
2022-12-08T03:17:35.878Z,94632.22
2022-12-08T03:20:07.225Z,94634.88
2022-12-08T03:22:34.438Z,94623.06
2022-12-08T03:25:02.082Z,94621.34
2022-12-08T03:27:31.246Z,94621.84
2022-12-08T03:29:59.384Z,94629.88
2022-12-08T03:32:52.305Z,94621.34
2022-12-08T03:35:33.132Z,94622.34
2022-12-08T03:38:09.044Z,94620.41
2022-12-08T03:40:35.732Z,94613.28
2022-12-08T03:43:02.321Z,94611.34
2022-12-08T03:45:29.384Z,94615.38
2022-12-08T03:47:56.542Z,94602.06
2022-12-08T03:50:23.537Z,94603.81
2022-12-08T03:52:50.100Z,94591.50
2022-12-08T03:55:17.189Z,94582.63
2022-12-08T03:57:44.089Z,94580.66
2022-12-08T04:00:15.132Z,94597.31
2022-12-08T04:02:41.840Z,94599.72
2022-12-08T04:05:08.848Z,94597.56
2022-12-08T04:07:35.437Z,94598.91
2022-12-08T04:10:02.411Z,94598.81
2022-12-08T04:12:29.124Z,94596.03
2022-12-08T04:14:55.664Z,94591.69
2022-12-08T04:17:22.250Z,94587.06
2022-12-08T04:19:48.769Z,94589.59
2022-12-08T04:22:15.327Z,94572.75
2022-12-08T04:24:41.972Z,94582.31
2022-12-08T04:27:08.517Z,94576.03
2022-12-08T04:29:35.017Z,94578.78
2022-12-08T04:32:01.729Z,94585.00
2022-12-08T04:34:28.272Z,94576.63
2022-12-08T04:36:54.802Z,94580.66
2022-12-08T04:39:21.324Z,94577.09
2022-12-08T04:41:47.888Z,94576.44
2022-12-08T04:44:14.426Z,94564.31
2022-12-08T04:46:43.600Z,94575.09
2022-12-08T04:49:10.570Z,94572.25
2022-12-08T04:51:37.125Z,94567.84
2022-12-08T04:54:03.707Z,94573.84
2022-12-08T04:56:30.746Z,94566.97
2022-12-08T04:58:57.334Z,94562.88
2022-12-08T05:01:25.593Z,94549.09
2022-12-08T05:03:52.402Z,94562.06
2022-12-08T05:06:19.193Z,94556.25
2022-12-08T05:08:45.922Z,94565.06
2022-12-08T05:11:13.425Z,94553.41
2022-12-08T05:13:40.048Z,94558.84
2022-12-08T05:16:15.246Z,94552.84
2022-12-08T05:18:42.645Z,94559.38
2022-12-08T05:21:09.887Z,94554.19
2022-12-08T05:23:36.693Z,94553.19
2022-12-08T05:26:03.621Z,94554.44
2022-12-08T05:28:45.850Z,94552.19
2022-12-08T05:31:14.155Z,94556.69
2022-12-08T05:33:41.082Z,94540.03
2022-12-08T05:36:08.929Z,94551.84
2022-12-08T05:38:35.858Z,94550.66
2022-12-08T05:41:02.438Z,94538.84
2022-12-08T05:43:29.177Z,94551.31
2022-12-08T05:45:55.802Z,94553.28
2022-12-08T05:48:22.394Z,94549.16
2022-12-08T05:50:50.284Z,94550.16
2022-12-08T05:53:18.364Z,94550.66
2022-12-08T05:55:45.598Z,94551.84
2022-12-08T05:58:18.452Z,94553.94
2022-12-08T06:00:46.686Z,94554.59
2022-12-08T06:03:15.619Z,94552.19
2022-12-08T06:05:43.538Z,94541.88
2022-12-08T06:08:11.198Z,94549.59
2022-12-08T06:10:39.571Z,94551.84
2022-12-08T06:13:06.432Z,94560.06
2022-12-08T06:15:35.145Z,94565.41
2022-12-08T06:18:01.820Z,94566.25
2022-12-08T06:20:28.776Z,94559.09
2022-12-08T06:22:55.953Z,94556.94
2022-12-08T06:25:23.321Z,94552.78
2022-12-08T06:27:50.510Z,94545.47
2022-12-08T06:30:18.218Z,94559.88
2022-12-08T06:32:44.780Z,94554.19
2022-12-08T06:35:11.498Z,94552.84
2022-12-08T06:37:38.016Z,94551.31
2022-12-08T06:40:05.211Z,94551.59
2022-12-08T06:42:43.758Z,94557.78
2022-12-08T06:45:15.567Z,94556.69
2022-12-08T06:47:42.248Z,94551.00
2022-12-08T06:50:11.002Z,94553.19
2022-12-08T06:52:47.346Z,94553.84
2022-12-08T06:55:42.502Z,94549.00
2022-12-08T06:58:06.453Z,94554.03
2022-12-08T07:00:32.983Z,94557.19
2022-12-08T07:02:59.572Z,94553.94
2022-12-08T07:05:26.172Z,94563.22
2022-12-08T07:07:52.787Z,94566.41
2022-12-08T07:10:19.386Z,94553.19
2022-12-08T07:12:45.981Z,94568.59
2022-12-08T07:15:12.588Z,94563.22
2022-12-08T07:17:39.148Z,94552.84
2022-12-08T07:20:06.823Z,94565.50
2022-12-08T07:22:33.873Z,94546.75
2022-12-08T07:25:00.452Z,94555.75
2022-12-08T07:27:26.994Z,94559.13
2022-12-08T07:29:53.557Z,94561.63
2022-12-08T07:32:20.156Z,94560.69
2022-12-08T07:34:47.320Z,94556.59
2022-12-08T07:37:14.483Z,94558.69
2022-12-08T07:39:41.023Z,94565.84
2022-12-08T07:42:07.568Z,94555.81
2022-12-08T07:44:34.108Z,94557.88
2022-12-08T07:47:00.631Z,94558.59
2022-12-08T07:49:27.391Z,94558.59
2022-12-08T07:51:54.140Z,94549.66
2022-12-08T07:54:20.807Z,94549.78
2022-12-08T07:56:47.310Z,94553.59
2022-12-08T07:59:14.693Z,94549.63
2022-12-08T08:01:45.340Z,94554.63
2022-12-08T08:04:12.345Z,94551.53
2022-12-08T08:06:39.238Z,94543.50
2022-12-08T08:09:05.929Z,94539.63
2022-12-08T08:11:32.478Z,94532.66
2022-12-08T08:13:59.316Z,94531.53
2022-12-08T08:16:25.996Z,94537.28
2022-12-08T08:18:52.710Z,94525.72
2022-12-08T08:21:45.686Z,94528.41
2022-12-08T08:24:08.681Z,94524.81
2022-12-08T08:26:37.395Z,94526.59
2022-12-08T08:29:04.021Z,94522.09
2022-12-08T08:31:30.697Z,94521.81
2022-12-08T08:33:57.678Z,94527.38
2022-12-08T08:36:24.214Z,94519.72
2022-12-08T08:38:50.882Z,94519.56
2022-12-08T08:41:17.621Z,94513.84
2022-12-08T08:43:44.162Z,94507.41
2022-12-08T08:46:11.153Z,94511.59
2022-12-08T08:48:37.959Z,94520.63
2022-12-08T08:51:10.328Z,94529.72
2022-12-08T08:53:37.212Z,94525.28
2022-12-08T08:56:08.169Z,94519.44
2022-12-08T08:58:34.720Z,94519.94
2022-12-08T09:01:01.219Z,94520.84
2022-12-08T09:03:28.000Z,94520.13
2022-12-08T09:05:55.955Z,94523.78
2022-12-08T09:08:23.602Z,94520.94
2022-12-08T09:10:50.475Z,94512.25
2022-12-08T09:13:17.858Z,94513.09
2022-12-08T09:15:44.416Z,94517.75
2022-12-08T09:18:11.165Z,94507.47
2022-12-08T09:20:37.845Z,94510.81
2022-12-08T09:23:04.418Z,94512.03
2022-12-08T09:25:31.033Z,94510.44
2022-12-08T09:27:57.588Z,94503.88
2022-12-08T09:30:24.313Z,94509.75
2022-12-08T09:32:50.942Z,94513.41
2022-12-08T09:35:17.605Z,94505.84
2022-12-08T09:37:44.168Z,94492.97
2022-12-08T09:40:16.982Z,94498.88
2022-12-08T09:43:02.122Z,94494.13
2022-12-08T09:45:33.637Z,94485.47
2022-12-08T09:48:10.246Z,94500.38
2022-12-08T09:50:43.857Z,94490.09
2022-12-08T09:53:18.562Z,94494.38
2022-12-08T09:56:08.733Z,94498.47
2022-12-08T09:58:48.385Z,94491.38
2022-12-08T10:01:15.522Z,94479.38
2022-12-08T10:03:42.889Z,94483.75
2022-12-08T10:06:31.937Z,94476.50
2022-12-08T10:09:01.387Z,94480.69
2022-12-08T10:11:47.132Z,94473.34
2022-12-08T10:14:32.282Z,94468.50
2022-12-08T10:17:07.015Z,94469.16
2022-12-08T10:19:34.386Z,94461.13
2022-12-08T10:22:02.574Z,94449.22
2022-12-08T10:24:41.429Z,94454.06
2022-12-08T10:27:12.112Z,94446.09
2022-12-08T10:29:40.601Z,94437.94
2022-12-08T10:32:18.647Z,94439.47
2022-12-08T10:35:14.450Z,94441.22
2022-12-08T10:37:41.292Z,94441.03
2022-12-08T10:40:13.957Z,94429.06
2022-12-08T10:42:45.334Z,94437.50
2022-12-08T10:45:26.815Z,94425.16
2022-12-08T10:48:18.280Z,94428.03
2022-12-08T10:50:47.827Z,94426.66
2022-12-08T10:53:21.309Z,94424.50
2022-12-08T10:56:06.989Z,94421.41
2022-12-08T10:58:42.335Z,94417.56
2022-12-08T11:01:18.578Z,94410.53
2022-12-08T11:03:52.076Z,94403.06
2022-12-08T11:06:31.221Z,94397.69
2022-12-08T11:09:00.824Z,94389.19
2022-12-08T11:11:39.537Z,94386.03
2022-12-08T11:14:09.166Z,94385.63
2022-12-08T11:16:36.126Z,94377.44
2022-12-08T11:19:08.150Z,94378.56
2022-12-08T11:21:37.323Z,94369.63
2022-12-08T11:24:15.669Z,94378.09
2022-12-08T11:27:00.604Z,94374.09
2022-12-08T11:29:32.724Z,94371.41
2022-12-08T11:32:17.599Z,94357.84
2022-12-08T11:34:52.165Z,94351.34
2022-12-08T11:37:35.248Z,94349.50
2022-12-08T11:40:07.244Z,94348.28
2022-12-08T11:43:07.142Z,94346.47
2022-12-08T11:45:36.114Z,94345.31
2022-12-08T11:48:15.100Z,94341.63
2022-12-08T11:51:01.714Z,94337.50
2022-12-08T11:53:36.032Z,94346.09
2022-12-08T11:56:10.675Z,94334.88
2022-12-08T11:58:50.548Z,94328.91
2022-12-08T12:01:21.242Z,94331.88
2022-12-08T12:04:17.866Z,94325.91
2022-12-08T12:07:15.357Z,94317.31
2022-12-08T12:09:56.783Z,94323.66
2022-12-08T12:13:00.303Z,94317.56
2022-12-08T12:15:45.778Z,94317.13
2022-12-08T12:18:16.757Z,94310.22
2022-12-08T12:21:10.685Z,94310.56
2022-12-08T12:23:47.909Z,94310.19
2022-12-08T12:26:32.382Z,94302.69
2022-12-08T12:29:04.147Z,94304.97
2022-12-08T12:31:33.729Z,94292.25
2022-12-08T12:34:14.607Z,94291.53
2022-12-08T12:36:57.622Z,94307.53
2022-12-08T12:39:34.046Z,94301.59
2022-12-08T12:42:02.633Z,94298.94
2022-12-08T12:44:29.143Z,94298.22
2022-12-08T12:47:01.690Z,94286.94
2022-12-08T12:49:43.991Z,94294.44
2022-12-08T12:52:10.457Z,94293.66
2022-12-08T12:54:50.960Z,94287.41
2022-12-08T12:57:20.774Z,94293.38
2022-12-08T13:00:17.378Z,94291.50
2022-12-08T13:02:43.932Z,94295.94
2022-12-08T13:05:13.483Z,94297.97
2022-12-08T13:07:58.218Z,94290.81
2022-12-08T13:10:39.731Z,94280.88
2022-12-08T13:13:10.907Z,94289.44
2022-12-08T13:15:48.447Z,94273.88
2022-12-08T13:18:27.984Z,94277.03
2022-12-08T13:21:16.898Z,94287.88
2022-12-08T13:24:09.749Z,94288.28
2022-12-08T13:26:54.838Z,94282.50
2022-12-08T13:29:26.058Z,94273.78
2022-12-08T13:31:58.925Z,94275.69
2022-12-08T13:34:48.773Z,94273.84
2022-12-08T13:37:54.942Z,94262.81
2022-12-08T13:40:28.204Z,94276.88
2022-12-08T13:43:18.930Z,94262.59
2022-12-08T13:50:36.597Z,94255.72
2022-12-08T13:57:30.683Z,94265.38
2022-12-08T14:00:07.499Z,94250.03
2022-12-08T14:02:40.798Z,94260.34
2022-12-08T14:05:26.330Z,94258.50
2022-12-08T14:07:59.004Z,94262.44
2022-12-08T14:10:29.212Z,94266.00
2022-12-08T14:12:59.827Z,94267.53
2022-12-08T14:15:26.529Z,94263.81
2022-12-08T14:17:55.615Z,94254.75
2022-12-08T14:20:51.903Z,94269.00
2022-12-08T14:23:21.963Z,94265.91
2022-12-08T14:25:49.660Z,94264.03
2022-12-08T14:28:16.756Z,94268.09
2022-12-08T14:30:43.547Z,94271.00
2022-12-08T14:33:16.989Z,94267.28
2022-12-08T14:35:50.660Z,94250.09
2022-12-08T14:38:19.286Z,94260.22
2022-12-08T14:41:01.744Z,94253.59
2022-12-08T14:43:30.532Z,94256.41
2022-12-08T14:46:02.627Z,94255.38
2022-12-08T14:48:36.293Z,94258.50
2022-12-08T14:51:21.452Z,94247.31
2022-12-08T14:53:56.573Z,94251.88
2022-12-08T14:56:51.841Z,94245.28
2022-12-08T14:59:42.422Z,94248.28
2022-12-08T15:02:24.319Z,94234.16
2022-12-08T15:05:14.834Z,94231.50
2022-12-08T15:07:52.325Z,94235.44
2022-12-08T15:10:23.092Z,94245.94
2022-12-08T15:13:11.509Z,94233.44
2022-12-08T15:15:51.703Z,94232.88
2022-12-08T15:18:36.728Z,94225.59
2022-12-08T15:21:06.689Z,94235.06
2022-12-08T15:23:42.677Z,94220.22
2022-12-08T15:26:10.516Z,94225.56
2022-12-08T15:28:37.109Z,94231.97
2022-12-08T15:31:03.845Z,94227.97
2022-12-08T15:33:30.712Z,94220.19
2022-12-08T15:35:57.275Z,94218.81
2022-12-08T15:38:26.330Z,94221.34
2022-12-08T15:40:53.913Z,94205.16
2022-12-08T15:43:21.022Z,94217.38
2022-12-08T15:45:58.280Z,94222.34
2022-12-08T15:48:28.124Z,94218.88
2022-12-08T15:50:56.153Z,94220.94
2022-12-08T15:53:23.227Z,94226.72
2022-12-08T15:56:18.995Z,94219.25
2022-12-08T15:58:55.149Z,94226.13
2022-12-08T16:01:23.803Z,94221.66
2022-12-08T16:09:38.833Z,94217.09
2022-12-08T16:12:35.543Z,94223.81
2022-12-08T16:18:01.752Z,94215.59
2022-12-08T16:21:05.449Z,94210.00
2022-12-08T16:23:41.129Z,94195.50
2022-12-08T16:26:23.918Z,94201.81
2022-12-08T16:28:56.032Z,94196.34
2022-12-08T16:31:23.326Z,94205.28
2022-12-08T16:33:50.286Z,94197.91
2022-12-08T16:36:16.819Z,94204.59
2022-12-08T16:38:43.416Z,94211.69
2022-12-08T16:41:36.334Z,94214.63
2022-12-08T16:44:05.270Z,94214.19
2022-12-08T16:46:32.274Z,94221.53
2022-12-08T16:48:59.242Z,94212.50
2022-12-08T16:51:27.246Z,94202.91
2022-12-08T16:53:54.997Z,94202.50
2022-12-08T16:56:26.236Z,94213.28
2022-12-08T16:58:57.246Z,94221.78
2022-12-08T17:01:24.320Z,94219.19
2022-12-08T17:04:14.304Z,94222.78
2022-12-08T17:06:37.715Z,94220.53
2022-12-08T17:09:04.332Z,94219.94
2022-12-08T17:11:36.240Z,94215.13
2022-12-08T17:14:05.998Z,94209.03
2022-12-08T17:16:32.706Z,94213.63
2022-12-08T17:18:59.290Z,94217.94
2022-12-08T17:21:25.856Z,94214.78
2022-12-08T17:23:52.432Z,94212.25
2022-12-08T17:26:19.003Z,94208.84
2022-12-08T17:29:00.701Z,94213.75
2022-12-08T17:31:30.177Z,94219.72
2022-12-08T17:34:05.863Z,94213.94
2022-12-08T17:36:32.456Z,94216.78
2022-12-08T17:39:00.638Z,94227.63
2022-12-08T17:41:28.035Z,94228.44
2022-12-08T17:43:54.706Z,94224.03
2022-12-08T17:46:22.698Z,94227.94
2022-12-08T17:48:49.819Z,94228.38
2022-12-08T17:51:16.638Z,94214.78
2022-12-08T17:53:43.674Z,94214.13
2022-12-08T17:56:19.413Z,94215.63
2022-12-08T17:58:51.091Z,94193.38
2022-12-08T18:01:21.112Z,94197.63
2022-12-08T18:03:47.709Z,94201.22
2022-12-08T18:06:14.332Z,94201.06
2022-12-08T18:08:41.256Z,94190.28
2022-12-08T18:11:13.286Z,94189.06
2022-12-08T18:13:40.086Z,94186.69
2022-12-08T18:16:06.904Z,94190.91
2022-12-08T18:18:33.412Z,94190.81
2022-12-08T18:20:59.974Z,94195.47
2022-12-08T18:23:27.038Z,94180.38
2022-12-08T18:25:53.997Z,94195.06
2022-12-08T18:28:20.509Z,94183.19
2022-12-08T18:30:47.337Z,94178.38
2022-12-08T18:33:13.863Z,94189.19
2022-12-08T18:35:40.461Z,94193.34
2022-12-08T18:38:07.189Z,94188.03
2022-12-08T18:40:33.955Z,94191.66
2022-12-08T18:43:00.534Z,94189.16
2022-12-08T18:45:27.124Z,94182.03
2022-12-08T18:47:54.086Z,94185.91
2022-12-08T18:50:20.835Z,94193.47
2022-12-08T18:52:48.089Z,94186.38
2022-12-08T18:55:15.521Z,94181.66
2022-12-08T18:57:43.275Z,94175.03
2022-12-08T19:00:14.678Z,94174.34
2022-12-08T19:02:42.120Z,94176.63
2022-12-08T19:05:11.333Z,94175.78
2022-12-08T19:07:38.491Z,94174.34
2022-12-08T19:10:06.528Z,94172.16
2022-12-08T19:12:33.392Z,94181.91
2022-12-08T19:15:00.228Z,94181.72
2022-12-08T19:17:26.949Z,94177.63
2022-12-08T19:19:53.555Z,94164.66
2022-12-08T19:22:20.094Z,94161.22
2022-12-08T19:24:47.988Z,94156.34
2022-12-08T19:27:14.560Z,94149.59
2022-12-08T19:29:41.285Z,94164.94
2022-12-08T19:32:07.857Z,94164.53
2022-12-08T19:34:34.480Z,94167.66
2022-12-08T19:37:01.022Z,94158.03
2022-12-08T19:39:46.155Z,94152.09
2022-12-08T19:42:37.028Z,94152.91
2022-12-08T19:45:08.293Z,94154.41
2022-12-08T19:47:35.009Z,94156.69
2022-12-08T19:50:20.553Z,94156.69
2022-12-08T19:52:47.262Z,94144.13
2022-12-08T19:55:13.963Z,94137.34
2022-12-08T19:57:40.544Z,94142.53
2022-12-08T20:00:09.637Z,94136.53
2022-12-08T20:02:37.435Z,94141.91
2022-12-08T20:05:05.547Z,94150.97
2022-12-08T20:07:32.059Z,94150.97
2022-12-08T20:09:58.584Z,94153.19
2022-12-08T20:12:25.244Z,94147.53
2022-12-08T20:14:52.324Z,94153.25
2022-12-08T20:17:19.478Z,94157.06
2022-12-08T20:19:46.291Z,94150.34
2022-12-08T20:22:12.857Z,94147.31
2022-12-08T20:24:39.474Z,94148.38
2022-12-08T20:27:06.111Z,94142.72
2022-12-08T20:29:32.894Z,94137.97
2022-12-08T20:31:59.614Z,94142.53
2022-12-08T20:34:26.640Z,94135.53
2022-12-08T20:36:53.344Z,94130.72
2022-12-08T20:39:19.889Z,94132.53
2022-12-08T20:41:47.005Z,94133.81
2022-12-08T20:44:16.927Z,94134.13
2022-12-08T20:46:49.044Z,94129.72
2022-12-08T20:49:16.191Z,94121.41
2022-12-08T20:51:44.433Z,94125.69
2022-12-08T20:54:11.487Z,94126.50
2022-12-08T20:56:42.114Z,94118.31
2022-12-08T20:59:17.232Z,94111.13
2022-12-08T21:01:44.052Z,94117.50
2022-12-08T21:04:12.401Z,94109.06
2022-12-08T21:06:39.224Z,94103.44
2022-12-08T21:09:06.080Z,94094.78
2022-12-08T21:11:33.209Z,94095.19
2022-12-08T21:13:59.759Z,94092.19
2022-12-08T21:16:26.557Z,94095.47
2022-12-08T21:18:53.578Z,94091.13
2022-12-08T21:21:20.297Z,94086.47
2022-12-08T21:23:47.273Z,94088.41
2022-12-08T21:26:19.415Z,94089.78
2022-12-08T21:28:46.997Z,94089.06
2022-12-08T21:31:17.367Z,94078.66
2022-12-08T21:33:44.448Z,94085.88
2022-12-08T21:36:13.726Z,94090.38
2022-12-08T21:38:40.859Z,94090.47
2022-12-08T21:41:16.289Z,94086.88
2022-12-08T21:43:43.249Z,94085.28
2022-12-08T21:46:17.302Z,94072.81
2022-12-08T21:48:44.081Z,94087.56
2022-12-08T21:51:10.977Z,94084.59
2022-12-08T21:53:37.793Z,94082.00
2022-12-08T21:56:08.775Z,94078.00
2022-12-08T21:58:35.417Z,94074.31
2022-12-08T22:01:10.019Z,94082.59
2022-12-08T22:03:38.331Z,94073.69
2022-12-08T22:06:10.132Z,94081.84
2022-12-08T22:08:37.087Z,94085.25
2022-12-08T22:11:04.618Z,94083.25
2022-12-08T22:13:33.357Z,94076.00
2022-12-08T22:16:03.732Z,94073.69
2022-12-08T22:18:30.501Z,94074.34
2022-12-08T22:20:58.133Z,94076.81
2022-12-08T22:23:24.725Z,94082.94
2022-12-08T22:26:02.184Z,94090.13
2022-12-08T22:28:33.906Z,94097.13
2022-12-08T22:31:01.057Z,94093.38
2022-12-08T22:33:30.386Z,94078.38
2022-12-08T22:36:09.834Z,94085.09
2022-12-08T22:38:37.484Z,94105.94
2022-12-08T22:41:05.634Z,94107.16
2022-12-08T22:43:32.998Z,94111.84
2022-12-08T22:45:59.853Z,94103.34
2022-12-08T22:48:26.523Z,94094.59
2022-12-08T22:51:01.543Z,94080.34
2022-12-08T22:53:28.145Z,94090.09
2022-12-08T22:55:55.016Z,94094.88
2022-12-08T22:58:22.323Z,94077.94
2022-12-08T23:00:49.209Z,94071.25
2022-12-08T23:03:15.879Z,94070.13
2022-12-08T23:05:42.984Z,94088.28
2022-12-08T23:08:15.962Z,94086.78
2022-12-08T23:10:43.733Z,94087.66
2022-12-08T23:13:11.940Z,94077.31
2022-12-08T23:15:39.219Z,94078.19
2022-12-08T23:18:06.653Z,94070.59
2022-12-08T23:20:34.444Z,94059.81
2022-12-08T23:23:01.324Z,94075.44
2022-12-08T23:25:27.874Z,94071.66
2022-12-08T23:27:54.421Z,94072.31
2022-12-08T23:30:21.238Z,94076.50
2022-12-08T23:32:48.155Z,94067.50
2022-12-08T23:35:14.859Z,94070.22
2022-12-08T23:37:41.436Z,94063.50
2022-12-08T23:40:09.153Z,94063.34
2022-12-08T23:42:35.976Z,94054.13
2022-12-08T23:45:04.313Z,94055.09
2022-12-08T23:47:31.194Z,94061.19
2022-12-08T23:49:57.836Z,94059.38
2022-12-08T23:52:24.843Z,94050.28
2022-12-08T23:54:51.679Z,94041.28
2022-12-08T23:57:18.196Z,94042.91
2022-12-08T23:59:45.017Z,94041.19
